createdAt,value
2023-02-24T00:00:33.933Z,111.30
2023-02-24T00:03:10.959Z,111.13
2023-02-24T00:05:44.570Z,107.40
2023-02-24T00:08:12.872Z,114.35
2023-02-24T00:10:41.413Z,108.65
2023-02-24T00:13:11.921Z,110.72
2023-02-24T00:15:40.253Z,106.07
2023-02-24T00:18:09.260Z,110.75
2023-02-24T00:20:37.523Z,103.18
2023-02-24T00:23:05.665Z,111.93
2023-02-24T00:25:33.792Z,110.20
2023-02-24T00:28:02.395Z,105.38
2023-02-24T00:30:33.103Z,96.80
2023-02-24T00:33:03.461Z,95.85
2023-02-24T00:35:33.354Z,95.45
2023-02-24T00:38:01.613Z,83.75
2023-02-24T00:40:31.991Z,79.28
2023-02-24T00:43:01.140Z,80.63
2023-02-24T00:45:33.835Z,71.90
2023-02-24T00:48:04.606Z,78.70
2023-02-24T00:50:33.574Z,70.15
2023-02-24T00:53:03.846Z,69.15
2023-02-24T00:55:36.478Z,56.17
2023-02-24T00:58:07.338Z,62.90
2023-02-24T01:00:38.269Z,53.25
2023-02-24T01:03:07.243Z,48.90
2023-02-24T01:05:37.668Z,42.60
2023-02-24T01:08:05.966Z,39.20
2023-02-24T01:10:34.930Z,38.22
2023-02-24T01:13:02.537Z,47.72
2023-02-24T01:15:30.683Z,40.95
2023-02-24T01:18:00.474Z,44.30
2023-02-24T01:20:30.553Z,45.95
2023-02-24T01:22:58.919Z,38.17
2023-02-24T01:25:31.362Z,42.50
2023-02-24T01:27:59.588Z,43.70
2023-02-24T01:30:28.820Z,33.30
2023-02-24T01:33:00.588Z,34.35
2023-02-24T01:35:31.658Z,46.75
2023-02-24T01:38:01.626Z,34.75
2023-02-24T01:40:29.930Z,33.38
2023-02-24T01:42:58.390Z,40.58
2023-02-24T01:45:29.680Z,29.70
2023-02-24T01:48:05.449Z,33.60
2023-02-24T01:50:37.675Z,35.70
2023-02-24T01:53:08.419Z,33.35
2023-02-24T01:55:42.829Z,39.67
2023-02-24T01:58:22.072Z,44.92
2023-02-24T02:00:51.725Z,34.72
2023-02-24T02:03:33.907Z,34.63
2023-02-24T02:06:08.009Z,31.38
2023-02-24T02:08:40.281Z,39.42
2023-02-24T02:11:10.191Z,29.93
2023-02-24T02:13:40.522Z,36.42
2023-02-24T02:16:35.440Z,41.55
2023-02-24T02:19:28.623Z,45.72
2023-02-24T02:24:49.707Z,31.80
2023-02-24T02:30:44.227Z,40.33
2023-02-24T02:33:39.450Z,30.52
2023-02-24T02:36:22.308Z,33.70
2023-02-24T02:38:58.312Z,26.90
2023-02-24T02:41:31.847Z,33.70
2023-02-24T02:44:08.681Z,20.83
2023-02-24T02:46:43.483Z,22.67
2023-02-24T02:49:18.006Z,24.15
2023-02-24T02:51:52.690Z,28.05
2023-02-24T02:54:28.319Z,30.52
2023-02-24T02:57:03.122Z,22.65
2023-02-24T02:59:35.354Z,27.80
2023-02-24T03:02:14.750Z,25.20
2023-02-24T03:04:51.223Z,25.98
2023-02-24T03:07:23.887Z,23.23
2023-02-24T03:09:56.519Z,24.73
2023-02-24T03:12:29.500Z,15.60
2023-02-24T03:17:36.206Z,26.85
2023-02-24T03:20:16.727Z,28.77
2023-02-24T03:22:52.016Z,23.52
2023-02-24T03:25:25.319Z,30.40
2023-02-24T03:27:57.025Z,29.30
2023-02-24T03:30:31.100Z,22.02
2023-02-24T03:33:06.338Z,19.70
2023-02-24T03:35:39.470Z,22.85
2023-02-24T03:38:11.167Z,17.42
2023-02-24T03:40:40.706Z,35.03
2023-02-24T03:43:17.995Z,29.73
2023-02-24T03:45:47.624Z,27.70
2023-02-24T03:48:17.324Z,31.23
2023-02-24T03:50:47.209Z,22.88
2023-02-24T03:53:43.386Z,29.23
2023-02-24T03:56:25.928Z,29.33
2023-02-24T03:59:12.709Z,22.65
2023-02-24T04:01:50.154Z,21.48
2023-02-24T04:04:27.443Z,23.70
2023-02-24T04:07:13.452Z,28.15
2023-02-24T04:09:50.316Z,29.77
2023-02-24T04:12:24.352Z,26.92
2023-02-24T04:15:04.719Z,21.80
2023-02-24T04:17:39.367Z,32.55
2023-02-24T04:20:13.481Z,24.15
2023-02-24T04:22:50.005Z,26.40
2023-02-24T04:25:24.523Z,24.00
2023-02-24T04:27:56.260Z,26.77
2023-02-24T04:30:27.792Z,25.40
2023-02-24T04:32:58.434Z,27.35
2023-02-24T04:35:28.082Z,21.00
2023-02-24T04:37:58.097Z,22.52
2023-02-24T04:40:28.809Z,24.80
2023-02-24T04:42:57.246Z,22.35
2023-02-24T04:45:27.370Z,28.73
2023-02-24T04:48:00.809Z,27.85
2023-02-24T04:50:31.148Z,25.48
2023-02-24T04:53:01.668Z,24.58
2023-02-24T04:55:34.102Z,16.42
2023-02-24T04:58:02.966Z,21.60
2023-02-24T05:00:35.836Z,23.88
2023-02-24T05:05:34.294Z,17.27
2023-02-24T05:08:08.127Z,16.35
2023-02-24T05:10:43.900Z,24.42
2023-02-24T05:13:15.283Z,16.73
2023-02-24T05:15:44.937Z,21.05
2023-02-24T05:18:16.340Z,18.15
2023-02-24T05:21:04.352Z,23.95
2023-02-24T05:23:34.594Z,20.70
2023-02-24T05:26:08.405Z,20.45
2023-02-24T05:28:37.812Z,25.60
2023-02-24T05:31:08.488Z,21.40
2023-02-24T05:33:38.176Z,20.80
2023-02-24T05:36:09.859Z,17.23
2023-02-24T05:38:39.127Z,22.70
2023-02-24T05:41:15.099Z,21.95
2023-02-24T05:43:44.666Z,14.02
2023-02-24T05:46:13.494Z,22.25
2023-02-24T05:48:41.809Z,19.45
2023-02-24T05:51:12.303Z,23.55
2023-02-24T05:53:42.336Z,18.35
2023-02-24T05:56:12.318Z,25.83
2023-02-24T05:58:40.535Z,18.38
2023-02-24T06:01:16.340Z,22.00
2023-02-24T06:03:47.954Z,18.80
2023-02-24T06:06:17.011Z,19.20
2023-02-24T06:08:50.532Z,28.90
2023-02-24T06:11:21.604Z,15.90
2023-02-24T06:13:50.010Z,22.92
2023-02-24T06:16:19.152Z,25.73
2023-02-24T06:18:50.433Z,17.63
2023-02-24T06:21:18.933Z,14.90
2023-02-24T06:23:47.188Z,15.85
2023-02-24T06:26:19.325Z,12.05
2023-02-24T06:28:49.878Z,17.48
2023-02-24T06:31:18.275Z,13.05
2023-02-24T06:33:46.505Z,19.30
2023-02-24T06:36:17.322Z,23.60
2023-02-24T06:38:49.392Z,15.50
2023-02-24T06:41:18.090Z,21.17
2023-02-24T06:43:48.400Z,24.13
2023-02-24T06:46:17.874Z,10.70
2023-02-24T06:48:48.354Z,16.00
2023-02-24T06:51:17.452Z,17.05
2023-02-24T06:53:45.864Z,14.10
2023-02-24T06:56:18.011Z,14.70
2023-02-24T06:58:50.614Z,32.47
2023-02-24T07:01:22.101Z,18.50
2023-02-24T07:04:17.666Z,15.23
2023-02-24T07:06:50.348Z,17.38
2023-02-24T07:09:21.969Z,18.90
2023-02-24T07:11:52.347Z,22.70
2023-02-24T07:14:24.357Z,17.23
2023-02-24T07:16:54.395Z,19.87
2023-02-24T07:19:24.915Z,19.60
2023-02-24T07:21:59.954Z,18.45
2023-02-24T07:24:36.462Z,15.38
2023-02-24T07:27:08.582Z,15.38
2023-02-24T07:29:40.766Z,11.80
2023-02-24T07:32:10.114Z,9.75
2023-02-24T07:34:40.230Z,12.82
2023-02-24T07:37:09.747Z,15.80
2023-02-24T07:39:39.484Z,17.63
2023-02-24T07:42:09.423Z,12.43
2023-02-24T07:44:49.511Z,17.38
2023-02-24T07:47:17.862Z,11.80
2023-02-24T07:49:46.287Z,20.20
2023-02-24T07:52:14.365Z,16.52
2023-02-24T07:54:45.214Z,12.73
2023-02-24T07:57:14.748Z,15.40
2023-02-24T07:59:46.769Z,15.00
2023-02-24T08:02:18.622Z,21.20
2023-02-24T08:04:51.699Z,18.40
2023-02-24T08:07:24.715Z,17.55
2023-02-24T08:10:24.188Z,14.52
2023-02-24T08:12:57.140Z,20.00
2023-02-24T08:18:00.547Z,16.10
2023-02-24T08:20:36.013Z,17.02
2023-02-24T08:23:06.527Z,12.73
2023-02-24T08:25:38.247Z,18.70
2023-02-24T08:28:11.374Z,12.73
2023-02-24T08:30:45.408Z,16.55
2023-02-24T08:33:20.337Z,17.70
2023-02-24T08:35:53.142Z,17.88
2023-02-24T08:43:34.849Z,14.07
2023-02-24T08:46:13.031Z,12.77
2023-02-24T08:48:46.389Z,16.52
2023-02-24T08:51:17.730Z,14.68
2023-02-24T08:53:47.346Z,14.77
2023-02-24T08:56:23.985Z,18.25
2023-02-24T08:58:57.173Z,19.77
2023-02-24T09:01:34.272Z,18.60
2023-02-24T09:04:07.348Z,20.17
2023-02-24T09:06:39.705Z,17.48
2023-02-24T09:09:22.467Z,16.42
2023-02-24T09:14:28.578Z,13.15
2023-02-24T09:17:07.248Z,14.77
2023-02-24T09:20:10.008Z,20.00
2023-02-24T09:22:55.779Z,12.77
2023-02-24T09:25:25.863Z,15.88
2023-02-24T09:27:57.002Z,10.88
2023-02-24T09:30:37.270Z,17.35
2023-02-24T09:33:24.464Z,16.48
2023-02-24T09:36:09.615Z,16.33
2023-02-24T09:38:57.111Z,18.45
2023-02-24T09:41:33.087Z,16.67
2023-02-24T09:44:08.425Z,12.38
2023-02-24T09:46:53.738Z,15.93
2023-02-24T09:49:25.286Z,12.80
2023-02-24T09:52:00.611Z,13.35
2023-02-24T09:54:35.256Z,15.65
2023-02-24T09:57:10.136Z,17.13
2023-02-24T10:00:01.246Z,10.95
2023-02-24T10:02:45.082Z,10.90
2023-02-24T10:05:27.361Z,16.27
2023-02-24T10:08:00.621Z,17.23
2023-02-24T10:10:36.248Z,12.32
2023-02-24T10:13:14.886Z,18.17
2023-02-24T10:15:59.049Z,17.52
2023-02-24T10:18:34.121Z,19.90
2023-02-24T10:21:20.087Z,13.65
2023-02-24T10:24:00.612Z,13.75
2023-02-24T10:26:51.303Z,14.27
2023-02-24T10:29:43.553Z,12.55
2023-02-24T10:32:24.234Z,12.65
2023-02-24T10:34:53.273Z,16.52
2023-02-24T10:37:28.660Z,12.88
2023-02-24T10:40:09.713Z,15.23
2023-02-24T10:42:45.729Z,11.57
2023-02-24T10:45:18.202Z,15.45
2023-02-24T10:47:56.672Z,10.80
2023-02-24T10:50:32.253Z,12.73
2023-02-24T10:53:26.768Z,13.02
2023-02-24T10:56:15.402Z,9.18
2023-02-24T10:58:56.790Z,14.93
2023-02-24T11:01:54.708Z,15.25
2023-02-24T11:04:43.903Z,15.02
2023-02-24T11:07:24.570Z,14.90
2023-02-24T11:10:11.320Z,13.02
2023-02-24T11:13:09.366Z,16.75
2023-02-24T11:16:00.603Z,11.27
2023-02-24T11:18:31.243Z,18.70
2023-02-24T11:21:02.294Z,8.63
2023-02-24T11:23:36.127Z,14.82
2023-02-24T11:26:12.890Z,16.13
2023-02-24T11:29:30.565Z,14.15
2023-02-24T11:32:15.539Z,16.20
2023-02-24T11:34:55.423Z,14.68
2023-02-24T11:37:37.282Z,12.13
2023-02-24T11:40:16.231Z,16.10
2023-02-24T11:42:51.002Z,15.30
2023-02-24T11:45:30.192Z,16.90
2023-02-24T11:48:04.190Z,15.80
2023-02-24T11:50:43.782Z,16.85
2023-02-24T11:53:26.295Z,18.17
2023-02-24T11:56:00.700Z,14.35
2023-02-24T11:58:35.746Z,16.05
2023-02-24T12:01:14.484Z,12.95
2023-02-24T12:03:52.283Z,10.55
2023-02-24T12:06:25.409Z,16.08
2023-02-24T12:09:00.251Z,12.93
2023-02-24T12:11:39.574Z,15.90
2023-02-24T12:14:23.410Z,11.25
2023-02-24T12:17:03.294Z,10.80
2023-02-24T12:19:39.282Z,13.77
2023-02-24T12:22:15.571Z,12.88
2023-02-24T12:24:49.809Z,7.43
2023-02-24T12:27:31.983Z,16.25
2023-02-24T12:30:22.942Z,14.30
2023-02-24T12:33:04.782Z,16.40
2023-02-24T12:35:44.670Z,20.40
2023-02-24T12:38:30.407Z,12.02
2023-02-24T12:41:13.836Z,11.82
2023-02-24T12:43:49.937Z,12.30
2023-02-24T12:46:25.697Z,9.05
2023-02-24T12:49:23.136Z,13.52
2023-02-24T12:52:05.414Z,13.30
2023-02-24T12:54:39.216Z,11.73
2023-02-24T12:57:15.065Z,14.73
2023-02-24T12:59:44.115Z,11.10
2023-02-24T13:02:21.090Z,16.85
2023-02-24T13:05:00.102Z,9.70
2023-02-24T13:07:43.308Z,13.35
2023-02-24T13:10:27.959Z,14.38
2023-02-24T13:13:06.627Z,14.30
2023-02-24T13:15:36.045Z,10.57
2023-02-24T13:18:07.214Z,9.55
2023-02-24T13:20:38.889Z,13.65
2023-02-24T13:23:21.404Z,16.05
2023-02-24T13:25:53.175Z,10.68
2023-02-24T13:28:28.750Z,14.80
2023-02-24T13:31:02.234Z,12.45
2023-02-24T13:33:33.427Z,11.55
2023-02-24T13:36:24.735Z,15.25
2023-02-24T13:39:04.755Z,19.50
2023-02-24T13:41:41.866Z,7.70
2023-02-24T13:44:28.023Z,8.63
2023-02-24T13:47:31.828Z,10.40
2023-02-24T13:50:18.688Z,13.32
2023-02-24T13:53:14.499Z,13.48
2023-02-24T13:55:55.792Z,12.70
2023-02-24T13:58:46.943Z,12.73
2023-02-24T14:01:17.858Z,15.32
2023-02-24T14:03:51.798Z,11.55
2023-02-24T14:06:25.951Z,11.10
2023-02-24T14:08:58.945Z,6.18
2023-02-24T14:11:30.094Z,8.02
2023-02-24T14:13:59.743Z,9.77
2023-02-24T14:16:30.923Z,7.53
2023-02-24T14:19:01.748Z,11.27
2023-02-24T14:21:34.816Z,10.90
2023-02-24T14:24:11.942Z,10.38
2023-02-24T14:26:44.746Z,11.88
2023-02-24T14:29:18.790Z,8.98
2023-02-24T14:31:49.908Z,9.50
2023-02-24T14:34:22.406Z,11.10
2023-02-24T14:36:53.325Z,9.90
2023-02-24T14:39:24.638Z,9.00
2023-02-24T14:42:04.742Z,10.50
2023-02-24T14:44:34.053Z,8.45
2023-02-24T14:47:06.454Z,10.48
2023-02-24T14:49:36.438Z,12.15
2023-02-24T14:52:09.632Z,9.63
2023-02-24T14:54:44.963Z,15.20
2023-02-24T14:57:16.977Z,11.20
2023-02-24T14:59:53.118Z,8.60
2023-02-24T15:02:25.495Z,5.65
2023-02-24T15:05:00.322Z,11.90
2023-02-24T15:07:33.203Z,9.30
2023-02-24T15:10:04.376Z,8.88
2023-02-24T15:12:41.187Z,11.98
2023-02-24T15:15:20.115Z,8.68
2023-02-24T15:17:51.228Z,8.88
2023-02-24T15:20:31.380Z,8.77
2023-02-24T15:23:00.459Z,8.63
2023-02-24T15:25:42.246Z,10.50
2023-02-24T15:28:24.778Z,6.43
2023-02-24T15:31:09.791Z,10.27
2023-02-24T15:33:41.296Z,7.95
2023-02-24T15:36:17.730Z,9.02
2023-02-24T15:38:47.246Z,11.88
2023-02-24T15:41:16.941Z,8.90
2023-02-24T15:43:50.343Z,9.63
2023-02-24T15:46:25.673Z,8.52
2023-02-24T15:48:56.439Z,7.55
2023-02-24T15:51:33.694Z,13.05
2023-02-24T15:54:03.435Z,7.72
2023-02-24T15:56:35.684Z,12.93
2023-02-24T15:59:05.908Z,9.10
2023-02-24T16:01:34.963Z,9.40
2023-02-24T16:04:04.653Z,12.30
2023-02-24T16:06:36.076Z,9.15
2023-02-24T16:09:08.069Z,12.45
2023-02-24T16:11:41.009Z,9.40
2023-02-24T16:16:39.649Z,10.25
2023-02-24T16:19:08.516Z,9.43
2023-02-24T16:21:37.241Z,11.20
2023-02-24T16:24:05.867Z,11.05
2023-02-24T16:26:39.623Z,19.75
2023-02-24T16:29:14.036Z,14.70
2023-02-24T16:31:43.167Z,13.80
2023-02-24T16:34:17.453Z,17.23
2023-02-24T16:36:45.839Z,15.30
2023-02-24T16:39:18.038Z,14.30
2023-02-24T16:41:47.839Z,15.23
2023-02-24T16:44:16.218Z,14.48
2023-02-24T16:46:46.058Z,14.52
2023-02-24T16:49:19.327Z,11.73
2023-02-24T16:51:48.148Z,12.80
2023-02-24T16:54:16.557Z,15.23
2023-02-24T16:56:45.337Z,15.20
2023-02-24T16:59:15.006Z,12.88
2023-02-24T17:01:43.886Z,16.63
2023-02-24T17:04:17.218Z,15.20
2023-02-24T17:06:48.554Z,17.00
2023-02-24T17:09:19.903Z,16.77
2023-02-24T17:11:48.322Z,17.23
2023-02-24T17:14:23.932Z,20.52
2023-02-24T17:16:54.436Z,17.08
2023-02-24T17:19:25.470Z,21.90
2023-02-24T17:21:56.216Z,21.38
2023-02-24T17:24:24.970Z,22.13
2023-02-24T17:26:59.204Z,19.95
2023-02-24T17:29:30.657Z,26.20
2023-02-24T17:31:59.157Z,22.58
2023-02-24T17:34:27.601Z,24.27
2023-02-24T17:36:55.832Z,23.38
2023-02-24T17:39:24.116Z,24.60
2023-02-24T17:41:53.555Z,24.40
2023-02-24T17:44:24.288Z,23.05
2023-02-24T17:46:54.022Z,23.45
2023-02-24T17:49:23.790Z,25.80
2023-02-24T17:51:53.499Z,25.35
2023-02-24T17:54:21.854Z,23.73
2023-02-24T17:56:50.105Z,22.20
2023-02-24T17:59:18.340Z,25.88
2023-02-24T18:01:48.554Z,28.23
2023-02-24T18:04:18.190Z,28.95
2023-02-24T18:06:47.052Z,36.42
2023-02-24T18:09:18.308Z,36.05
2023-02-24T18:11:48.147Z,32.92
2023-02-24T18:14:17.034Z,36.88
2023-02-24T18:16:45.511Z,37.13
2023-02-24T18:19:13.713Z,35.00
2023-02-24T18:21:43.455Z,44.30
2023-02-24T18:24:11.971Z,53.17
2023-02-24T18:26:40.614Z,36.13
2023-02-24T18:29:08.941Z,36.03
2023-02-24T18:31:37.260Z,35.65
2023-02-24T18:34:05.856Z,34.50
2023-02-24T18:36:34.175Z,37.63
2023-02-24T18:39:04.120Z,37.63
2023-02-24T18:41:33.380Z,35.97
2023-02-24T18:44:01.955Z,40.65
2023-02-24T18:46:30.377Z,41.08
2023-02-24T18:48:59.026Z,36.55
2023-02-24T18:51:29.052Z,33.15
2023-02-24T18:53:59.444Z,38.53
2023-02-24T18:56:34.653Z,38.45
2023-02-24T18:59:05.077Z,36.38
2023-02-24T19:01:36.529Z,40.40
2023-02-24T19:04:07.645Z,43.20
2023-02-24T19:06:38.606Z,41.50
2023-02-24T19:09:09.668Z,38.78
2023-02-24T19:11:40.958Z,39.40
2023-02-24T19:14:11.944Z,42.03
2023-02-24T19:16:40.503Z,39.75
2023-02-24T19:19:09.880Z,37.30
2023-02-24T19:21:38.152Z,40.42
2023-02-24T19:24:08.318Z,38.13
2023-02-24T19:26:39.715Z,41.22
2023-02-24T19:29:08.547Z,38.05
2023-02-24T19:31:37.542Z,39.15
2023-02-24T19:34:08.845Z,37.42
2023-02-24T19:36:38.580Z,40.38
2023-02-24T19:39:10.090Z,42.95
2023-02-24T19:41:43.724Z,35.90
2023-02-24T19:44:12.100Z,40.47
2023-02-24T19:46:40.606Z,39.72
2023-02-24T19:49:09.690Z,40.47
2023-02-24T19:51:38.303Z,43.03
2023-02-24T19:54:06.828Z,45.05
2023-02-24T19:56:37.688Z,42.13
2023-02-24T19:59:11.590Z,43.97
2023-02-24T20:01:40.035Z,45.38
2023-02-24T20:04:11.099Z,46.13
2023-02-24T20:06:43.952Z,42.92
2023-02-24T20:09:15.663Z,45.63
2023-02-24T20:11:47.787Z,43.83
2023-02-24T20:14:29.613Z,42.53
2023-02-24T20:17:00.684Z,41.22
2023-02-24T20:19:29.317Z,42.67
2023-02-24T20:21:57.490Z,47.80
2023-02-24T20:24:25.732Z,44.33
2023-02-24T20:26:54.179Z,46.65
2023-02-24T20:29:33.615Z,41.63
2023-02-24T20:32:20.950Z,45.30
2023-02-24T20:34:49.282Z,41.95
2023-02-24T20:37:17.728Z,47.30
2023-02-24T20:39:46.409Z,41.03
2023-02-24T20:42:15.057Z,44.25
2023-02-24T20:44:44.896Z,51.22
2023-02-24T20:47:13.576Z,42.25
2023-02-24T20:49:42.033Z,49.53
2023-02-24T20:52:12.560Z,45.88
2023-02-24T20:54:43.374Z,52.47
2023-02-24T20:57:11.648Z,50.83
2023-02-24T20:59:49.170Z,51.78
2023-02-24T21:02:21.384Z,56.17
2023-02-24T21:04:49.645Z,47.15
2023-02-24T21:07:18.214Z,53.80
2023-02-24T21:09:48.879Z,56.00
2023-02-24T21:12:17.427Z,51.28
2023-02-24T21:14:45.813Z,52.08
2023-02-24T21:17:14.028Z,51.05
2023-02-24T21:19:45.926Z,51.17
2023-02-24T21:22:14.274Z,51.08
2023-02-24T21:24:42.995Z,56.97
2023-02-24T21:27:11.239Z,60.70
2023-02-24T21:29:40.022Z,55.25
2023-02-24T21:32:08.389Z,62.50
2023-02-24T21:34:36.649Z,55.22
2023-02-24T21:37:07.355Z,58.97
2023-02-24T21:39:35.785Z,53.20
2023-02-24T21:42:03.978Z,55.80
2023-02-24T21:44:32.277Z,52.53
2023-02-24T21:47:00.476Z,53.63
2023-02-24T21:49:30.942Z,58.53
2023-02-24T21:51:59.194Z,48.00
2023-02-24T21:54:30.802Z,46.60
2023-02-24T21:56:59.371Z,45.42
2023-02-24T21:59:27.522Z,47.00
2023-02-24T22:01:55.949Z,45.00
2023-02-24T22:04:24.390Z,49.97
2023-02-24T22:06:52.681Z,47.13
2023-02-24T22:09:21.240Z,42.03
2023-02-24T22:11:51.400Z,42.08
2023-02-24T22:14:20.446Z,41.17
2023-02-24T22:16:51.751Z,39.23
2023-02-24T22:19:27.123Z,39.63
2023-02-24T22:21:55.720Z,46.47
2023-02-24T22:24:23.928Z,38.83
2023-02-24T22:26:53.936Z,39.40
2023-02-24T22:29:22.145Z,42.13
2023-02-24T22:31:50.471Z,37.72
2023-02-24T22:34:18.702Z,48.38
2023-02-24T22:36:47.180Z,39.33
2023-02-24T22:39:16.948Z,37.22
2023-02-24T22:41:46.808Z,42.47
2023-02-24T22:44:19.173Z,36.47
2023-02-24T22:46:47.737Z,34.42
2023-02-24T22:49:18.635Z,38.80
2023-02-24T22:51:49.406Z,38.40
2023-02-24T22:54:18.985Z,39.45
2023-02-24T22:56:47.743Z,35.75
2023-02-24T22:59:17.503Z,42.40
2023-02-24T23:01:45.654Z,30.85
2023-02-24T23:04:16.572Z,35.08
2023-02-24T23:06:45.000Z,41.53
2023-02-24T23:09:20.161Z,34.95
2023-02-24T23:11:48.956Z,30.92
2023-02-24T23:14:20.517Z,34.67
2023-02-24T23:16:55.450Z,37.40
2023-02-24T23:19:24.330Z,29.23
2023-02-24T23:21:54.317Z,27.83
2023-02-24T23:24:24.048Z,28.55
2023-02-24T23:26:57.232Z,29.92
2023-02-24T23:29:27.616Z,25.88
2023-02-24T23:31:56.128Z,26.15
2023-02-24T23:34:24.669Z,27.98
2023-02-24T23:36:55.578Z,28.20
2023-02-24T23:39:24.063Z,27.92
2023-02-24T23:41:57.523Z,29.63
2023-02-24T23:44:27.599Z,31.13
2023-02-24T23:46:58.265Z,28.75
2023-02-24T23:49:42.368Z,21.50
2023-02-24T23:52:15.777Z,29.20
2023-02-24T23:54:44.537Z,24.38
2023-02-24T23:57:12.670Z,27.17
2023-02-24T23:59:42.279Z,26.80
